Thailine 5 — 9WFF5 — position and weather

sailwx.info

Track history (hours):
 
Tides and Currents Weather Stations Pressure Air Temp Water Temp Dewpoint Dewpoint Depression Visibility Wind Speed Wind Dir Waves Ship Positions

Thailine 5

Last reported at 2015-Jan-22 08:05 UTC. Time now 2015-Jan-25 18:25 UTC.
Position N 34°56' E 139°24'.

; draft 4.8 m.

Type: Cargo ship. MMSI: 533399000.

Date/timePositionNaut miles runAvg speedWind from/ knotsBaromVisibWave heightAir tempDewpointWater temp
2015-Jan-22 08:05N 34°56' E 139°24'611.6
2015-Jan-22 07:32N 34°60' E 139°30'1111.5
2015-Jan-22 06:33N 35°05' E 139°42'1110.6
2015-Jan-22 05:33N 35°15' E 139°46'10 9.5
2015-Jan-22 04:33N 35°25' E 139°43'3 3.1
2015-Jan-22 03:31N 35°28' E 139°42'0 0.0
2015-Jan-22 02:31N 35°28' E 139°42'0 0.0
2015-Jan-22 01:31N 35°28' E 139°42'0 0.0
2015-Jan-22 00:31N 35°28' E 139°42'0 0.0
2015-Jan-21 23:28N 35°28' E 139°42'0 0.0
2015-Jan-21 22:49N 35°28' E 139°42'0 0.2
2015-Jan-21 22:46N 35°28' E 139°42'0 0.0
2015-Jan-21 22:31N 35°28' E 139°42'0 0.0
2015-Jan-21 21:31N 35°28' E 139°42'0 0.0
2015-Jan-21 20:31N 35°28' E 139°42'0 0.0
2015-Jan-21 19:25N 35°28' E 139°42'0 0.0
2015-Jan-21 18:31N 35°28' E 139°42'0 0.0
2015-Jan-21 17:31N 35°28' E 139°42'0 0.0
2015-Jan-21 16:31N 35°28' E 139°42'0 0.0
2015-Jan-21 15:28N 35°28' E 139°42'0 0.0
2015-Jan-21 14:31N 35°28' E 139°42'0 0.0
2015-Jan-21 13:31N 35°28' E 139°42'0 0.0
2015-Jan-21 12:31N 35°28' E 139°42'0 0.0
2015-Jan-21 11:31N 35°28' E 139°42'0 0.0
2015-Jan-21 10:31N 35°28' E 139°42'0 0.0
2015-Jan-21 09:31N 35°28' E 139°42'0 0.0
2015-Jan-21 08:31N 35°28' E 139°42'0 0.0
2015-Jan-21 07:31N 35°28' E 139°42'0 0.0
2015-Jan-21 06:31N 35°28' E 139°42'0 0.0
2015-Jan-21 05:31N 35°28' E 139°42'0 0.0
2015-Jan-21 04:31N 35°28' E 139°42'0 0.0
2015-Jan-21 03:31N 35°28' E 139°42'0 0.0
2015-Jan-21 02:31N 35°28' E 139°42'0 0.0
2015-Jan-21 01:25N 35°28' E 139°42'0 0.0
2015-Jan-21 00:31N 35°28' E 139°42'0 0.0
2015-Jan-20 23:31N 35°28' E 139°42'0 0.1
2015-Jan-20 22:33N 35°28' E 139°42'2 2.0
2015-Jan-20 21:33N 35°26' E 139°43'1 0.7
2015-Jan-20 20:32N 35°26' E 139°42'0 0.0
2015-Jan-20 19:32N 35°26' E 139°42'0 0.0
2015-Jan-20 18:26N 35°26' E 139°42'0 0.0
2015-Jan-20 17:32N 35°26' E 139°42'0 0.1
2015-Jan-20 16:32N 35°26' E 139°42'0 0.0
2015-Jan-20 15:32N 35°26' E 139°42'0 0.0
2015-Jan-20 14:32N 35°26' E 139°42'0 0.1
2015-Jan-20 13:32N 35°26' E 139°42'0 0.1
2015-Jan-20 12:32N 35°26' E 139°42'0 0.0
2015-Jan-20 11:32N 35°26' E 139°42'0 0.0
2015-Jan-20 10:32N 35°26' E 139°42'0 0.0
2015-Jan-20 09:32N 35°26' E 139°42'0 0.0
2015-Jan-20 08:32N 35°26' E 139°42'1 1.2
2015-Jan-20 07:33N 35°25' E 139°42'3 3.0
2015-Jan-20 06:32N 35°22' E 139°39'0 0.0
2015-Jan-20 05:32N 35°22' E 139°39'0 0.0
2015-Jan-20 04:26N 35°22' E 139°39'0 0.0
2015-Jan-20 03:30N 35°22' E 139°39'0 0.0
2015-Jan-20 02:33N 35°22' E 139°39'0 0.0
2015-Jan-20 01:20N 35°22' E 139°39'0 0.0
2015-Jan-20 00:32N 35°22' E 139°39'0 0.0
2015-Jan-19 23:32N 35°22' E 139°39'0 0.0
2015-Jan-19 22:32N 35°22' E 139°39'0 0.0
2015-Jan-19 21:29N 35°22' E 139°39'0 0.0
2015-Jan-19 20:32N 35°22' E 139°39'0 0.0
2015-Jan-19 19:32N 35°22' E 139°39'0 0.0
2015-Jan-19 18:32N 35°22' E 139°39'0 0.0
2015-Jan-19 17:32N 35°22' E 139°39'0 0.0
2015-Jan-19 16:32N 35°22' E 139°39'0 0.0
2015-Jan-19 15:33N 35°22' E 139°39'0 0.0
2015-Jan-19 14:32N 35°22' E 139°39'0 0.0
2015-Jan-19 13:32N 35°22' E 139°39'0 0.0
2015-Jan-19 12:32N 35°22' E 139°39'0 0.0
2015-Jan-19 11:32N 35°22' E 139°39'0 0.0
2015-Jan-19 10:32N 35°22' E 139°39'0 0.0
2015-Jan-19 09:32N 35°22' E 139°39'0 0.0
2015-Jan-19 08:29N 35°22' E 139°39'0 0.0
2015-Jan-19 07:32N 35°22' E 139°39'0 0.0
2015-Jan-19 06:32N 35°22' E 139°39'0 0.0
2015-Jan-19 05:32N 35°22' E 139°39'0 0.0
2015-Jan-19 04:32N 35°22' E 139°39'0 0.0
2015-Jan-19 03:32N 35°22' E 139°39'0 0.0
2015-Jan-19 02:32N 35°22' E 139°39'0 0.0
2015-Jan-19 01:32N 35°22' E 139°39'0 0.0
2015-Jan-19 00:32N 35°22' E 139°39'0 0.0
2015-Jan-18 23:32N 35°22' E 139°39'0 0.0
2015-Jan-18 22:32N 35°22' E 139°39'1 0.6
2015-Jan-18 21:32N 35°23' E 139°40'0 0.1
2015-Jan-18 20:32N 35°23' E 139°40'0 0.0
2015-Jan-18 19:32N 35°23' E 139°40'0 0.0
2015-Jan-18 18:32N 35°23' E 139°40'0 0.0
2015-Jan-18 17:32N 35°23' E 139°40'0 0.0
2015-Jan-18 16:32N 35°23' E 139°40'0 0.0
2015-Jan-18 15:32N 35°23' E 139°40'0 0.0
2015-Jan-18 14:32N 35°23' E 139°40'0 0.0
2015-Jan-18 13:32N 35°23' E 139°40'0 0.0
2015-Jan-18 12:32N 35°23' E 139°40'0 0.0
2015-Jan-18 11:32N 35°23' E 139°40'0 0.0
2015-Jan-18 10:32N 35°23' E 139°40'0 0.0
2015-Jan-18 09:32N 35°23' E 139°40'0 0.1
2015-Jan-18 08:29N 35°23' E 139°40'0 0.0
2015-Jan-18 07:32N 35°23' E 139°40'0 0.0
2015-Jan-18 06:32N 35°23' E 139°40'0 0.1
2015-Jan-18 05:32N 35°23' E 139°40'0 0.0
2015-Jan-18 04:32N 35°23' E 139°40'0 0.0
2015-Jan-18 03:32N 35°23' E 139°40'0 0.0
2015-Jan-18 02:26N 35°23' E 139°40'0 0.0
2015-Jan-18 01:32N 35°23' E 139°40'0 0.0
2015-Jan-18 00:32N 35°23' E 139°40'0 0.1
2015-Jan-17 23:32N 35°23' E 139°40'0 0.0
2015-Jan-17 22:32N 35°23' E 139°40'0 0.0
2015-Jan-17 21:32N 35°23' E 139°40'0 0.0
2015-Jan-17 20:32N 35°23' E 139°40'0 0.0
2015-Jan-17 19:32N 35°23' E 139°40'0 0.0
2015-Jan-17 18:32N 35°23' E 139°40'0 0.0
2015-Jan-17 17:32N 35°23' E 139°40'0 0.0
2015-Jan-17 16:32N 35°23' E 139°40'0 0.0
2015-Jan-17 15:32N 35°23' E 139°40'0 0.0
2015-Jan-17 14:32N 35°23' E 139°40'0 0.0
2015-Jan-17 13:32N 35°23' E 139°40'0 0.0
2015-Jan-17 12:32N 35°23' E 139°40'0 0.0
2015-Jan-17 11:32N 35°23' E 139°40'0 0.0
2015-Jan-17 10:32N 35°23' E 139°40'0 0.0
2015-Jan-17 09:29N 35°23' E 139°40'0 0.0
2015-Jan-17 08:32N 35°23' E 139°40'0 0.0
2015-Jan-17 07:33N 35°23' E 139°40'2 2.5
2015-Jan-17 06:33N 35°22' E 139°43'8 7.7
2015-Jan-17 05:33N 35°15' E 139°47'9 8.8
2015-Jan-17 04:33N 35°06' E 139°46'9 9.2
2015-Jan-17 03:33N 34°57' E 139°43'7 6.6
2015-Jan-17 02:33N 34°52' E 139°48'10 4.9
2015-Jan-17 00:33N 34°54' E 139°59'9 2.1
2015-Jan-16 20:26N 34°56' E 140°10'3 2.6
2015-Jan-16 19:19N 34°55' E 140°07'2 2.0
2015-Jan-16 18:33N 34°54' E 140°05'2 1.7
2015-Jan-16 17:15N 34°53' E 140°03'1 1.5
2015-Jan-16 16:33N 34°52' E 140°02'2 1.8
2015-Jan-16 15:33N 34°51' E 140°01'3 2.6
2015-Jan-16 14:24N 34°49' E 139°57'2 2.2
2015-Jan-16 13:34N 34°48' E 139°56'2 1.7
2015-Jan-16 12:19N 34°47' E 139°54'5 5.5
2015-Jan-16 11:23N 34°49' E 139°48'1 1.3
2015-Jan-16 10:27N 34°50' E 139°47'1 1.3
2015-Jan-16 09:28N 34°49' E 139°47'1 1.1
2015-Jan-16 08:34N 34°48' E 139°47'1 0.9
2015-Jan-16 07:22N 34°47' E 139°48'1 0.9
2015-Jan-16 06:18N 34°48' E 139°47'9 9.3
2015-Jan-16 05:20N 34°56' E 139°43'6 8.1
2015-Jan-16 04:34N 35°01' E 139°48'1 1.2
2015-Jan-16 03:22N 35°01' E 139°50'0 0.0
2015-Jan-16 02:10N 35°01' E 139°50'0 0.0
2015-Jan-16 01:28N 35°01' E 139°50'0 0.0
2015-Jan-15 23:16N 35°01' E 139°49'0 0.0
2015-Jan-15 22:25N 35°01' E 139°49'0 0.0
2015-Jan-15 21:29N 35°01' E 139°49'0 0.1
2015-Jan-15 20:23N 35°01' E 139°49'0 0.1
2015-Jan-15 19:29N 35°01' E 139°50'0 0.0
2015-Jan-15 18:34N 35°01' E 139°50'0 0.0
2015-Jan-15 17:33N 35°01' E 139°50'0 0.1
2015-Jan-15 16:33N 35°01' E 139°49'0 0.0
2015-Jan-15 15:34N 35°01' E 139°49'0 0.1
2015-Jan-15 14:33N 35°01' E 139°50'0 0.0
2015-Jan-15 13:30N 35°01' E 139°50'0 0.0
2015-Jan-15 12:25N 35°01' E 139°50'0 0.0
2015-Jan-15 11:33N 35°01' E 139°50'0 0.3
2015-Jan-15 10:33N 35°00' E 139°50'0 0.4
2015-Jan-15 09:33N 35°00' E 139°49'5 5.2
2015-Jan-15 08:33N 35°00' E 139°43'6 5.1
2015-Jan-15 07:23N 34°55' E 139°45'21 0.8
2015-Jan-14 05:16N 34°51' E 140°10'6 0.2
2015-Jan-13 00:13N 34°45' E 140°09'13 0.8
2015-Jan-12 08:20N 34°58' E 140°13'  
Track history (hours):
 
Tides and Currents Weather Stations Pressure Air Temp Water Temp Dewpoint Dewpoint Depression Visibility Wind Speed Wind Dir Waves Ship Positions

Thailine 5

Last reported at 2015-Jan-22 08:05 UTC. Time now 2015-Jan-25 18:25 UTC.
Position N 34°56' E 139°24'.

; draft 4.8 m.

Type: Cargo ship. MMSI: 533399000.

Date/timePositionNaut miles runAvg speedWind from/ knotsBaromVisibWave heightAir tempDewpointWater temp
2015-Jan-22 08:05N 34°56' E 139°24'611.6
2015-Jan-22 07:32N 34°60' E 139°30'1111.5
2015-Jan-22 06:33N 35°05' E 139°42'1110.6
2015-Jan-22 05:33N 35°15' E 139°46'10 9.5
2015-Jan-22 04:33N 35°25' E 139°43'3 3.1
2015-Jan-22 03:31N 35°28' E 139°42'0 0.0
2015-Jan-22 02:31N 35°28' E 139°42'0 0.0
2015-Jan-22 01:31N 35°28' E 139°42'0 0.0
2015-Jan-22 00:31N 35°28' E 139°42'0 0.0
2015-Jan-21 23:28N 35°28' E 139°42'0 0.0
2015-Jan-21 22:49N 35°28' E 139°42'0 0.2
2015-Jan-21 22:46N 35°28' E 139°42'0 0.0
2015-Jan-21 22:31N 35°28' E 139°42'0 0.0
2015-Jan-21 21:31N 35°28' E 139°42'0 0.0
2015-Jan-21 20:31N 35°28' E 139°42'0 0.0
2015-Jan-21 19:25N 35°28' E 139°42'0 0.0
2015-Jan-21 18:31N 35°28' E 139°42'0 0.0
2015-Jan-21 17:31N 35°28' E 139°42'0 0.0
2015-Jan-21 16:31N 35°28' E 139°42'0 0.0
2015-Jan-21 15:28N 35°28' E 139°42'0 0.0
2015-Jan-21 14:31N 35°28' E 139°42'0 0.0
2015-Jan-21 13:31N 35°28' E 139°42'0 0.0
2015-Jan-21 12:31N 35°28' E 139°42'0 0.0
2015-Jan-21 11:31N 35°28' E 139°42'0 0.0
2015-Jan-21 10:31N 35°28' E 139°42'0 0.0
2015-Jan-21 09:31N 35°28' E 139°42'0 0.0
2015-Jan-21 08:31N 35°28' E 139°42'0 0.0
2015-Jan-21 07:31N 35°28' E 139°42'0 0.0
2015-Jan-21 06:31N 35°28' E 139°42'0 0.0
2015-Jan-21 05:31N 35°28' E 139°42'0 0.0
2015-Jan-21 04:31N 35°28' E 139°42'0 0.0
2015-Jan-21 03:31N 35°28' E 139°42'0 0.0
2015-Jan-21 02:31N 35°28' E 139°42'0 0.0
2015-Jan-21 01:25N 35°28' E 139°42'0 0.0
2015-Jan-21 00:31N 35°28' E 139°42'0 0.0
2015-Jan-20 23:31N 35°28' E 139°42'0 0.1
2015-Jan-20 22:33N 35°28' E 139°42'2 2.0
2015-Jan-20 21:33N 35°26' E 139°43'1 0.7
2015-Jan-20 20:32N 35°26' E 139°42'0 0.0
2015-Jan-20 19:32N 35°26' E 139°42'0 0.0
2015-Jan-20 18:26N 35°26' E 139°42'0 0.0
2015-Jan-20 17:32N 35°26' E 139°42'0 0.1
2015-Jan-20 16:32N 35°26' E 139°42'0 0.0
2015-Jan-20 15:32N 35°26' E 139°42'0 0.0
2015-Jan-20 14:32N 35°26' E 139°42'0 0.1
2015-Jan-20 13:32N 35°26' E 139°42'0 0.1
2015-Jan-20 12:32N 35°26' E 139°42'0 0.0
2015-Jan-20 11:32N 35°26' E 139°42'0 0.0
2015-Jan-20 10:32N 35°26' E 139°42'0 0.0
2015-Jan-20 09:32N 35°26' E 139°42'0 0.0
2015-Jan-20 08:32N 35°26' E 139°42'1 1.2
2015-Jan-20 07:33N 35°25' E 139°42'3 3.0
2015-Jan-20 06:32N 35°22' E 139°39'0 0.0
2015-Jan-20 05:32N 35°22' E 139°39'0 0.0
2015-Jan-20 04:26N 35°22' E 139°39'0 0.0
2015-Jan-20 03:30N 35°22' E 139°39'0 0.0
2015-Jan-20 02:33N 35°22' E 139°39'0 0.0
2015-Jan-20 01:20N 35°22' E 139°39'0 0.0
2015-Jan-20 00:32N 35°22' E 139°39'0 0.0
2015-Jan-19 23:32N 35°22' E 139°39'0 0.0
2015-Jan-19 22:32N 35°22' E 139°39'0 0.0
2015-Jan-19 21:29N 35°22' E 139°39'0 0.0
2015-Jan-19 20:32N 35°22' E 139°39'0 0.0
2015-Jan-19 19:32N 35°22' E 139°39'0 0.0
2015-Jan-19 18:32N 35°22' E 139°39'0 0.0
2015-Jan-19 17:32N 35°22' E 139°39'0 0.0
2015-Jan-19 16:32N 35°22' E 139°39'0 0.0
2015-Jan-19 15:33N 35°22' E 139°39'0 0.0
2015-Jan-19 14:32N 35°22' E 139°39'0 0.0
2015-Jan-19 13:32N 35°22' E 139°39'0 0.0
2015-Jan-19 12:32N 35°22' E 139°39'0 0.0
2015-Jan-19 11:32N 35°22' E 139°39'0 0.0
2015-Jan-19 10:32N 35°22' E 139°39'0 0.0
2015-Jan-19 09:32N 35°22' E 139°39'0 0.0
2015-Jan-19 08:29N 35°22' E 139°39'0 0.0
2015-Jan-19 07:32N 35°22' E 139°39'0 0.0
2015-Jan-19 06:32N 35°22' E 139°39'0 0.0
2015-Jan-19 05:32N 35°22' E 139°39'0 0.0
2015-Jan-19 04:32N 35°22' E 139°39'0 0.0
2015-Jan-19 03:32N 35°22' E 139°39'0 0.0
2015-Jan-19 02:32N 35°22' E 139°39'0 0.0
2015-Jan-19 01:32N 35°22' E 139°39'0 0.0
2015-Jan-19 00:32N 35°22' E 139°39'0 0.0
2015-Jan-18 23:32N 35°22' E 139°39'0 0.0
2015-Jan-18 22:32N 35°22' E 139°39'1 0.6
2015-Jan-18 21:32N 35°23' E 139°40'0 0.1
2015-Jan-18 20:32N 35°23' E 139°40'0 0.0
2015-Jan-18 19:32N 35°23' E 139°40'0 0.0
2015-Jan-18 18:32N 35°23' E 139°40'0 0.0
2015-Jan-18 17:32N 35°23' E 139°40'0 0.0
2015-Jan-18 16:32N 35°23' E 139°40'0 0.0
2015-Jan-18 15:32N 35°23' E 139°40'0 0.0
2015-Jan-18 14:32N 35°23' E 139°40'0 0.0
2015-Jan-18 13:32N 35°23' E 139°40'0 0.0
2015-Jan-18 12:32N 35°23' E 139°40'0 0.0
2015-Jan-18 11:32N 35°23' E 139°40'0 0.0
2015-Jan-18 10:32N 35°23' E 139°40'0 0.0
2015-Jan-18 09:32N 35°23' E 139°40'0 0.1
2015-Jan-18 08:29N 35°23' E 139°40'0 0.0
2015-Jan-18 07:32N 35°23' E 139°40'0 0.0
2015-Jan-18 06:32N 35°23' E 139°40'0 0.1
2015-Jan-18 05:32N 35°23' E 139°40'0 0.0
2015-Jan-18 04:32N 35°23' E 139°40'0 0.0
2015-Jan-18 03:32N 35°23' E 139°40'0 0.0
2015-Jan-18 02:26N 35°23' E 139°40'0 0.0
2015-Jan-18 01:32N 35°23' E 139°40'0 0.0
2015-Jan-18 00:32N 35°23' E 139°40'0 0.1
2015-Jan-17 23:32N 35°23' E 139°40'0 0.0
2015-Jan-17 22:32N 35°23' E 139°40'0 0.0
2015-Jan-17 21:32N 35°23' E 139°40'0 0.0
2015-Jan-17 20:32N 35°23' E 139°40'0 0.0
2015-Jan-17 19:32N 35°23' E 139°40'0 0.0
2015-Jan-17 18:32N 35°23' E 139°40'0 0.0
2015-Jan-17 17:32N 35°23' E 139°40'0 0.0
2015-Jan-17 16:32N 35°23' E 139°40'0 0.0
2015-Jan-17 15:32N 35°23' E 139°40'0 0.0
2015-Jan-17 14:32N 35°23' E 139°40'0 0.0
2015-Jan-17 13:32N 35°23' E 139°40'0 0.0
2015-Jan-17 12:32N 35°23' E 139°40'0 0.0
2015-Jan-17 11:32N 35°23' E 139°40'0 0.0
2015-Jan-17 10:32N 35°23' E 139°40'0 0.0
2015-Jan-17 09:29N 35°23' E 139°40'0 0.0
2015-Jan-17 08:32N 35°23' E 139°40'0 0.0
2015-Jan-17 07:33N 35°23' E 139°40'2 2.5
2015-Jan-17 06:33N 35°22' E 139°43'8 7.7
2015-Jan-17 05:33N 35°15' E 139°47'9 8.8
2015-Jan-17 04:33N 35°06' E 139°46'9 9.2
2015-Jan-17 03:33N 34°57' E 139°43'7 6.6
2015-Jan-17 02:33N 34°52' E 139°48'10 4.9
2015-Jan-17 00:33N 34°54' E 139°59'9 2.1
2015-Jan-16 20:26N 34°56' E 140°10'3 2.6
2015-Jan-16 19:19N 34°55' E 140°07'2 2.0
2015-Jan-16 18:33N 34°54' E 140°05'2 1.7
2015-Jan-16 17:15N 34°53' E 140°03'1 1.5
2015-Jan-16 16:33N 34°52' E 140°02'2 1.8
2015-Jan-16 15:33N 34°51' E 140°01'3 2.6
2015-Jan-16 14:24N 34°49' E 139°57'2 2.2
2015-Jan-16 13:34N 34°48' E 139°56'2 1.7
2015-Jan-16 12:19N 34°47' E 139°54'5 5.5
2015-Jan-16 11:23N 34°49' E 139°48'1 1.3
2015-Jan-16 10:27N 34°50' E 139°47'1 1.3
2015-Jan-16 09:28N 34°49' E 139°47'1 1.1
2015-Jan-16 08:34N 34°48' E 139°47'1 0.9
2015-Jan-16 07:22N 34°47' E 139°48'1 0.9
2015-Jan-16 06:18N 34°48' E 139°47'9 9.3
2015-Jan-16 05:20N 34°56' E 139°43'6 8.1
2015-Jan-16 04:34N 35°01' E 139°48'1 1.2
2015-Jan-16 03:22N 35°01' E 139°50'0 0.0
2015-Jan-16 02:10N 35°01' E 139°50'0 0.0
2015-Jan-16 01:28N 35°01' E 139°50'0 0.0
2015-Jan-15 23:16N 35°01' E 139°49'0 0.0
2015-Jan-15 22:25N 35°01' E 139°49'0 0.0
2015-Jan-15 21:29N 35°01' E 139°49'0 0.1
2015-Jan-15 20:23N 35°01' E 139°49'0 0.1
2015-Jan-15 19:29N 35°01' E 139°50'0 0.0
2015-Jan-15 18:34N 35°01' E 139°50'0 0.0
2015-Jan-15 17:33N 35°01' E 139°50'0 0.1
2015-Jan-15 16:33N 35°01' E 139°49'0 0.0
2015-Jan-15 15:34N 35°01' E 139°49'0 0.1
2015-Jan-15 14:33N 35°01' E 139°50'0 0.0
2015-Jan-15 13:30N 35°01' E 139°50'0 0.0
2015-Jan-15 12:25N 35°01' E 139°50'0 0.0
2015-Jan-15 11:33N 35°01' E 139°50'0 0.3
2015-Jan-15 10:33N 35°00' E 139°50'0 0.4
2015-Jan-15 09:33N 35°00' E 139°49'5 5.2
2015-Jan-15 08:33N 35°00' E 139°43'6 5.1
2015-Jan-15 07:23N 34°55' E 139°45'21 0.8
2015-Jan-14 05:16N 34°51' E 140°10'6 0.2
2015-Jan-13 00:13N 34°45' E 140°09'13 0.8
2015-Jan-12 08:20N 34°58' E 140°13'  

Dump ship's entire track history